sensor_id;sensor_type;location;lat;lon;timestamp;P1;durP1;ratioP1;P2;durP2;ratioP2
5121;SDS011;2563;52.242;7.956;2022-07-23T00:00:51;8.67;;;4.73;;
5121;SDS011;2563;52.242;7.956;2022-07-23T00:03:16;9.67;;;5.47;;
5121;SDS011;2563;52.242;7.956;2022-07-23T00:05:42;9.10;;;4.90;;
5121;SDS011;2563;52.242;7.956;2022-07-23T00:08:07;7.53;;;4.43;;
5121;SDS011;2563;52.242;7.956;2022-07-23T00:10:33;10.33;;;4.40;;
5121;SDS011;2563;52.242;7.956;2022-07-23T00:12:58;9.70;;;5.00;;
5121;SDS011;2563;52.242;7.956;2022-07-23T00:15:24;10.70;;;4.83;;
5121;SDS011;2563;52.242;7.956;2022-07-23T00:17:49;7.50;;;4.90;;
5121;SDS011;2563;52.242;7.956;2022-07-23T00:20:15;13.53;;;5.50;;
5121;SDS011;2563;52.242;7.956;2022-07-23T00:22:47;13.80;;;6.10;;
5121;SDS011;2563;52.242;7.956;2022-07-23T00:25:14;7.67;;;4.50;;
5121;SDS011;2563;52.242;7.956;2022-07-23T00:27:40;12.60;;;5.37;;
5121;SDS011;2563;52.242;7.956;2022-07-23T00:30:06;11.20;;;5.33;;
5121;SDS011;2563;52.242;7.956;2022-07-23T00:32:32;13.50;;;5.53;;
5121;SDS011;2563;52.242;7.956;2022-07-23T00:34:58;16.90;;;5.53;;
5121;SDS011;2563;52.242;7.956;2022-07-23T00:37:23;10.67;;;5.90;;
5121;SDS011;2563;52.242;7.956;2022-07-23T00:39:48;9.10;;;5.27;;
5121;SDS011;2563;52.242;7.956;2022-07-23T00:42:14;11.73;;;5.47;;
5121;SDS011;2563;52.242;7.956;2022-07-23T00:44:39;7.77;;;4.60;;
5121;SDS011;2563;52.242;7.956;2022-07-23T00:47:04;8.47;;;5.33;;
5121;SDS011;2563;52.242;7.956;2022-07-23T00:49:30;16.10;;;5.90;;
5121;SDS011;2563;52.242;7.956;2022-07-23T00:51:57;9.40;;;5.03;;
5121;SDS011;2563;52.242;7.956;2022-07-23T00:54:26;14.97;;;5.50;;
5121;SDS011;2563;52.242;7.956;2022-07-23T00:56:52;13.93;;;5.20;;
5121;SDS011;2563;52.242;7.956;2022-07-23T00:59:18;11.03;;;6.20;;
5121;SDS011;2563;52.242;7.956;2022-07-23T01:01:43;10.50;;;5.30;;
5121;SDS011;2563;52.242;7.956;2022-07-23T01:04:10;15.17;;;6.17;;
5121;SDS011;2563;52.242;7.956;2022-07-23T01:06:36;13.80;;;5.57;;
5121;SDS011;2563;52.242;7.956;2022-07-23T01:09:03;9.67;;;4.93;;
5121;SDS011;2563;52.242;7.956;2022-07-23T01:11:31;8.40;;;5.00;;
5121;SDS011;2563;52.242;7.956;2022-07-23T01:13:58;11.60;;;6.27;;
5121;SDS011;2563;52.242;7.956;2022-07-23T01:16:23;11.90;;;5.10;;
5121;SDS011;2563;52.242;7.956;2022-07-23T01:18:48;8.90;;;5.20;;
5121;SDS011;2563;52.242;7.956;2022-07-23T01:21:14;14.80;;;5.83;;
5121;SDS011;2563;52.242;7.956;2022-07-23T01:23:43;15.27;;;5.73;;
5121;SDS011;2563;52.242;7.956;2022-07-23T01:26:08;18.10;;;7.00;;
5121;SDS011;2563;52.242;7.956;2022-07-23T01:28:34;10.23;;;5.60;;
5121;SDS011;2563;52.242;7.956;2022-07-23T01:31:02;9.83;;;5.40;;
5121;SDS011;2563;52.242;7.956;2022-07-23T01:33:27;11.67;;;6.03;;
5121;SDS011;2563;52.242;7.956;2022-07-23T01:35:53;10.60;;;6.03;;
5121;SDS011;2563;52.242;7.956;2022-07-23T01:38:18;10.03;;;5.80;;
5121;SDS011;2563;52.242;7.956;2022-07-23T01:40:43;12.37;;;5.60;;
5121;SDS011;2563;52.242;7.956;2022-07-23T01:43:08;9.60;;;5.40;;
5121;SDS011;2563;52.242;7.956;2022-07-23T01:45:34;15.27;;;5.30;;
5121;SDS011;2563;52.242;7.956;2022-07-23T01:47:59;16.63;;;5.17;;
5121;SDS011;2563;52.242;7.956;2022-07-23T01:50:25;12.10;;;6.00;;
5121;SDS011;2563;52.242;7.956;2022-07-23T01:52:50;11.40;;;4.87;;
5121;SDS011;2563;52.242;7.956;2022-07-23T01:55:15;14.83;;;5.27;;
5121;SDS011;2563;52.242;7.956;2022-07-23T01:57:41;12.23;;;6.30;;
5121;SDS011;2563;52.242;7.956;2022-07-23T02:00:06;9.27;;;5.20;;
5121;SDS011;2563;52.242;7.956;2022-07-23T02:02:32;9.27;;;4.80;;
5121;SDS011;2563;52.242;7.956;2022-07-23T02:04:58;8.57;;;4.83;;
5121;SDS011;2563;52.242;7.956;2022-07-23T02:07:23;11.23;;;5.23;;
5121;SDS011;2563;52.242;7.956;2022-07-23T02:09:48;8.27;;;5.10;;
5121;SDS011;2563;52.242;7.956;2022-07-23T02:12:13;10.33;;;4.80;;
5121;SDS011;2563;52.242;7.956;2022-07-23T02:14:39;9.53;;;5.30;;
5121;SDS011;2563;52.242;7.956;2022-07-23T02:17:04;8.77;;;5.03;;
5121;SDS011;2563;52.242;7.956;2022-07-23T02:19:29;13.10;;;4.80;;
5121;SDS011;2563;52.242;7.956;2022-07-23T02:21:55;10.60;;;5.20;;
5121;SDS011;2563;52.242;7.956;2022-07-23T02:24:20;13.90;;;5.30;;
5121;SDS011;2563;52.242;7.956;2022-07-23T02:26:46;8.00;;;4.87;;
5121;SDS011;2563;52.242;7.956;2022-07-23T02:29:12;11.87;;;4.90;;
5121;SDS011;2563;52.242;7.956;2022-07-23T02:31:37;15.13;;;5.53;;
5121;SDS011;2563;52.242;7.956;2022-07-23T02:34:03;11.43;;;6.07;;
5121;SDS011;2563;52.242;7.956;2022-07-23T02:36:28;9.47;;;5.47;;
5121;SDS011;2563;52.242;7.956;2022-07-23T02:38:53;13.03;;;5.60;;
5121;SDS011;2563;52.242;7.956;2022-07-23T02:41:19;10.40;;;5.47;;
5121;SDS011;2563;52.242;7.956;2022-07-23T02:43:44;10.73;;;5.57;;
5121;SDS011;2563;52.242;7.956;2022-07-23T02:46:09;14.57;;;6.60;;
5121;SDS011;2563;52.242;7.956;2022-07-23T02:48:35;13.20;;;5.40;;
5121;SDS011;2563;52.242;7.956;2022-07-23T02:51:00;13.10;;;6.27;;
5121;SDS011;2563;52.242;7.956;2022-07-23T02:53:26;12.80;;;5.30;;
5121;SDS011;2563;52.242;7.956;2022-07-23T02:55:51;11.70;;;5.70;;
5121;SDS011;2563;52.242;7.956;2022-07-23T02:58:16;9.53;;;5.60;;
5121;SDS011;2563;52.242;7.956;2022-07-23T03:00:42;9.30;;;5.57;;
5121;SDS011;2563;52.242;7.956;2022-07-23T03:03:07;14.63;;;6.07;;
5121;SDS011;2563;52.242;7.956;2022-07-23T03:05:33;16.73;;;6.53;;
5121;SDS011;2563;52.242;7.956;2022-07-23T03:07:59;21.33;;;6.80;;
5121;SDS011;2563;52.242;7.956;2022-07-23T03:10:24;18.10;;;6.00;;
5121;SDS011;2563;52.242;7.956;2022-07-23T03:12:50;12.70;;;6.73;;
5121;SDS011;2563;52.242;7.956;2022-07-23T03:15:16;13.50;;;6.40;;
5121;SDS011;2563;52.242;7.956;2022-07-23T03:17:41;15.00;;;6.90;;
5121;SDS011;2563;52.242;7.956;2022-07-23T03:20:07;15.10;;;6.27;;
5121;SDS011;2563;52.242;7.956;2022-07-23T03:22:33;10.80;;;5.83;;
5121;SDS011;2563;52.242;7.956;2022-07-23T03:24:58;15.47;;;5.90;;
5121;SDS011;2563;52.242;7.956;2022-07-23T03:27:24;11.10;;;6.50;;
5121;SDS011;2563;52.242;7.956;2022-07-23T03:29:52;13.57;;;6.00;;
5121;SDS011;2563;52.242;7.956;2022-07-23T03:32:19;15.63;;;6.60;;
5121;SDS011;2563;52.242;7.956;2022-07-23T03:34:45;12.80;;;6.60;;
5121;SDS011;2563;52.242;7.956;2022-07-23T03:37:10;16.30;;;7.40;;
5121;SDS011;2563;52.242;7.956;2022-07-23T03:39:36;14.73;;;6.00;;
5121;SDS011;2563;52.242;7.956;2022-07-23T03:42:02;13.03;;;6.50;;
5121;SDS011;2563;52.242;7.956;2022-07-23T03:44:27;13.97;;;7.20;;
5121;SDS011;2563;52.242;7.956;2022-07-23T03:46:52;19.43;;;6.50;;
5121;SDS011;2563;52.242;7.956;2022-07-23T03:49:18;21.53;;;7.63;;
5121;SDS011;2563;52.242;7.956;2022-07-23T03:51:43;13.17;;;6.67;;
5121;SDS011;2563;52.242;7.956;2022-07-23T03:54:08;15.20;;;6.80;;
5121;SDS011;2563;52.242;7.956;2022-07-23T03:56:34;13.90;;;6.77;;
5121;SDS011;2563;52.242;7.956;2022-07-23T03:59:00;17.73;;;6.87;;
5121;SDS011;2563;52.242;7.956;2022-07-23T04:01:26;14.53;;;6.87;;
5121;SDS011;2563;52.242;7.956;2022-07-23T04:03:51;14.50;;;7.17;;
5121;SDS011;2563;52.242;7.956;2022-07-23T04:06:17;13.77;;;6.67;;
5121;SDS011;2563;52.242;7.956;2022-07-23T04:08:42;13.77;;;6.03;;
5121;SDS011;2563;52.242;7.956;2022-07-23T04:11:08;12.63;;;6.80;;
5121;SDS011;2563;52.242;7.956;2022-07-23T04:13:33;17.53;;;6.80;;
5121;SDS011;2563;52.242;7.956;2022-07-23T04:15:58;10.50;;;5.70;;
5121;SDS011;2563;52.242;7.956;2022-07-23T04:18:24;9.90;;;6.13;;
5121;SDS011;2563;52.242;7.956;2022-07-23T04:20:52;13.57;;;6.30;;
5121;SDS011;2563;52.242;7.956;2022-07-23T04:23:18;15.40;;;6.90;;
5121;SDS011;2563;52.242;7.956;2022-07-23T04:25:43;10.40;;;6.20;;
5121;SDS011;2563;52.242;7.956;2022-07-23T04:28:09;12.40;;;5.80;;
5121;SDS011;2563;52.242;7.956;2022-07-23T04:30:35;14.83;;;7.60;;
5121;SDS011;2563;52.242;7.956;2022-07-23T04:33:00;15.63;;;6.80;;
5121;SDS011;2563;52.242;7.956;2022-07-23T04:35:26;11.97;;;5.87;;
5121;SDS011;2563;52.242;7.956;2022-07-23T04:37:51;14.93;;;6.97;;
5121;SDS011;2563;52.242;7.956;2022-07-23T04:40:16;11.53;;;6.60;;
5121;SDS011;2563;52.242;7.956;2022-07-23T04:42:42;12.03;;;6.43;;
5121;SDS011;2563;52.242;7.956;2022-07-23T04:45:07;13.90;;;7.17;;
5121;SDS011;2563;52.242;7.956;2022-07-23T04:47:33;17.80;;;7.03;;
5121;SDS011;2563;52.242;7.956;2022-07-23T04:49:58;12.07;;;5.67;;
5121;SDS011;2563;52.242;7.956;2022-07-23T04:52:24;14.43;;;6.43;;
5121;SDS011;2563;52.242;7.956;2022-07-23T04:54:49;10.53;;;5.90;;
5121;SDS011;2563;52.242;7.956;2022-07-23T04:57:15;12.23;;;6.37;;
5121;SDS011;2563;52.242;7.956;2022-07-23T04:59:40;16.97;;;6.37;;
5121;SDS011;2563;52.242;7.956;2022-07-23T05:02:06;13.23;;;6.20;;
5121;SDS011;2563;52.242;7.956;2022-07-23T05:04:31;17.33;;;6.83;;
5121;SDS011;2563;52.242;7.956;2022-07-23T05:06:57;12.30;;;7.07;;
5121;SDS011;2563;52.242;7.956;2022-07-23T05:09:23;14.27;;;5.90;;
5121;SDS011;2563;52.242;7.956;2022-07-23T05:11:48;14.13;;;6.30;;
5121;SDS011;2563;52.242;7.956;2022-07-23T05:14:14;9.77;;;5.67;;
5121;SDS011;2563;52.242;7.956;2022-07-23T05:16:39;9.00;;;5.27;;
5121;SDS011;2563;52.242;7.956;2022-07-23T05:19:04;20.60;;;6.63;;
5121;SDS011;2563;52.242;7.956;2022-07-23T05:21:30;14.40;;;6.90;;
5121;SDS011;2563;52.242;7.956;2022-07-23T05:23:55;9.97;;;5.80;;
5121;SDS011;2563;52.242;7.956;2022-07-23T05:26:20;10.60;;;5.43;;
5121;SDS011;2563;52.242;7.956;2022-07-23T05:28:46;12.50;;;6.20;;
5121;SDS011;2563;52.242;7.956;2022-07-23T05:31:11;12.60;;;6.10;;
5121;SDS011;2563;52.242;7.956;2022-07-23T05:33:36;15.63;;;7.50;;
5121;SDS011;2563;52.242;7.956;2022-07-23T05:36:02;14.00;;;6.80;;
5121;SDS011;2563;52.242;7.956;2022-07-23T05:38:28;18.00;;;7.67;;
5121;SDS011;2563;52.242;7.956;2022-07-23T05:40:55;18.00;;;7.43;;
5121;SDS011;2563;52.242;7.956;2022-07-23T05:43:20;13.30;;;6.60;;
5121;SDS011;2563;52.242;7.956;2022-07-23T05:45:46;15.90;;;6.77;;
5121;SDS011;2563;52.242;7.956;2022-07-23T05:48:11;16.40;;;7.30;;
5121;SDS011;2563;52.242;7.956;2022-07-23T05:50:36;13.53;;;7.30;;
5121;SDS011;2563;52.242;7.956;2022-07-23T05:53:02;21.90;;;8.00;;
5121;SDS011;2563;52.242;7.956;2022-07-23T05:55:27;16.60;;;7.10;;
5121;SDS011;2563;52.242;7.956;2022-07-23T05:57:54;13.40;;;7.87;;
5121;SDS011;2563;52.242;7.956;2022-07-23T06:00:21;15.13;;;7.03;;
5121;SDS011;2563;52.242;7.956;2022-07-23T06:02:46;13.90;;;7.47;;
5121;SDS011;2563;52.242;7.956;2022-07-23T06:05:11;11.67;;;7.43;;
5121;SDS011;2563;52.242;7.956;2022-07-23T06:07:37;10.20;;;6.23;;
5121;SDS011;2563;52.242;7.956;2022-07-23T06:10:03;15.33;;;6.73;;
5121;SDS011;2563;52.242;7.956;2022-07-23T06:12:29;12.50;;;7.23;;
5121;SDS011;2563;52.242;7.956;2022-07-23T06:14:54;16.23;;;6.87;;
5121;SDS011;2563;52.242;7.956;2022-07-23T06:17:19;10.53;;;6.23;;
5121;SDS011;2563;52.242;7.956;2022-07-23T06:19:45;13.30;;;6.00;;
5121;SDS011;2563;52.242;7.956;2022-07-23T06:22:10;11.67;;;6.10;;
5121;SDS011;2563;52.242;7.956;2022-07-23T06:24:35;11.47;;;6.47;;
5121;SDS011;2563;52.242;7.956;2022-07-23T06:27:01;10.87;;;6.07;;
5121;SDS011;2563;52.242;7.956;2022-07-23T06:29:26;18.23;;;6.73;;
5121;SDS011;2563;52.242;7.956;2022-07-23T06:31:51;11.00;;;6.03;;
5121;SDS011;2563;52.242;7.956;2022-07-23T06:34:17;9.87;;;6.07;;
5121;SDS011;2563;52.242;7.956;2022-07-23T06:36:42;12.63;;;6.07;;
5121;SDS011;2563;52.242;7.956;2022-07-23T06:39:08;15.70;;;7.10;;
5121;SDS011;2563;52.242;7.956;2022-07-23T06:41:33;12.20;;;6.30;;
5121;SDS011;2563;52.242;7.956;2022-07-23T06:43:58;11.33;;;6.53;;
5121;SDS011;2563;52.242;7.956;2022-07-23T06:46:24;10.70;;;7.00;;
5121;SDS011;2563;52.242;7.956;2022-07-23T06:48:50;13.43;;;6.30;;
5121;SDS011;2563;52.242;7.956;2022-07-23T06:51:15;10.93;;;6.47;;
5121;SDS011;2563;52.242;7.956;2022-07-23T06:53:40;11.37;;;6.13;;
5121;SDS011;2563;52.242;7.956;2022-07-23T06:56:06;11.90;;;4.70;;
5121;SDS011;2563;52.242;7.956;2022-07-23T06:58:31;12.17;;;5.40;;
5121;SDS011;2563;52.242;7.956;2022-07-23T07:00:57;10.50;;;4.57;;
5121;SDS011;2563;52.242;7.956;2022-07-23T07:03:22;10.53;;;4.97;;
5121;SDS011;2563;52.242;7.956;2022-07-23T07:05:48;11.63;;;4.57;;
5121;SDS011;2563;52.242;7.956;2022-07-23T07:08:14;13.73;;;4.80;;
5121;SDS011;2563;52.242;7.956;2022-07-23T07:10:40;11.20;;;4.30;;
5121;SDS011;2563;52.242;7.956;2022-07-23T07:13:05;8.23;;;4.27;;
5121;SDS011;2563;52.242;7.956;2022-07-23T07:15:31;7.87;;;4.27;;
5121;SDS011;2563;52.242;7.956;2022-07-23T07:17:56;8.43;;;4.57;;
5121;SDS011;2563;52.242;7.956;2022-07-23T07:20:21;11.90;;;3.97;;
5121;SDS011;2563;52.242;7.956;2022-07-23T07:22:47;10.60;;;4.33;;
5121;SDS011;2563;52.242;7.956;2022-07-23T07:25:12;11.13;;;4.33;;
5121;SDS011;2563;52.242;7.956;2022-07-23T07:27:37;13.27;;;4.33;;
5121;SDS011;2563;52.242;7.956;2022-07-23T07:30:04;10.67;;;4.97;;
5121;SDS011;2563;52.242;7.956;2022-07-23T07:32:31;12.87;;;4.70;;
5121;SDS011;2563;52.242;7.956;2022-07-23T07:34:57;13.63;;;4.67;;
5121;SDS011;2563;52.242;7.956;2022-07-23T07:37:23;9.00;;;4.63;;
5121;SDS011;2563;52.242;7.956;2022-07-23T07:39:48;10.90;;;4.90;;
5121;SDS011;2563;52.242;7.956;2022-07-23T07:42:14;7.93;;;4.43;;
5121;SDS011;2563;52.242;7.956;2022-07-23T07:44:39;12.80;;;4.63;;
5121;SDS011;2563;52.242;7.956;2022-07-23T07:47:04;10.60;;;4.70;;
5121;SDS011;2563;52.242;7.956;2022-07-23T07:49:30;11.90;;;3.37;;
5121;SDS011;2563;52.242;7.956;2022-07-23T07:51:55;7.23;;;3.53;;
5121;SDS011;2563;52.242;7.956;2022-07-23T07:54:20;9.30;;;4.00;;
5121;SDS011;2563;52.242;7.956;2022-07-23T07:56:46;7.17;;;3.50;;
5121;SDS011;2563;52.242;7.956;2022-07-23T07:59:12;7.20;;;3.27;;
5121;SDS011;2563;52.242;7.956;2022-07-23T08:01:39;7.67;;;4.03;;
5121;SDS011;2563;52.242;7.956;2022-07-23T08:04:05;6.40;;;4.00;;
5121;SDS011;2563;52.242;7.956;2022-07-23T08:06:30;6.60;;;3.20;;
5121;SDS011;2563;52.242;7.956;2022-07-23T08:08:55;5.33;;;2.60;;
5121;SDS011;2563;52.242;7.956;2022-07-23T08:11:20;6.10;;;2.40;;
5121;SDS011;2563;52.242;7.956;2022-07-23T08:13:46;4.93;;;2.80;;
5121;SDS011;2563;52.242;7.956;2022-07-23T08:16:11;5.90;;;3.07;;
5121;SDS011;2563;52.242;7.956;2022-07-23T08:18:36;6.10;;;3.60;;
5121;SDS011;2563;52.242;7.956;2022-07-23T08:21:02;5.00;;;2.97;;
5121;SDS011;2563;52.242;7.956;2022-07-23T08:23:30;6.23;;;3.20;;
5121;SDS011;2563;52.242;7.956;2022-07-23T08:25:55;6.30;;;3.37;;
5121;SDS011;2563;52.242;7.956;2022-07-23T08:28:21;5.90;;;3.23;;
5121;SDS011;2563;52.242;7.956;2022-07-23T08:30:47;7.17;;;3.53;;
5121;SDS011;2563;52.242;7.956;2022-07-23T08:33:13;5.70;;;3.30;;
5121;SDS011;2563;52.242;7.956;2022-07-23T08:35:45;6.20;;;2.87;;
5121;SDS011;2563;52.242;7.956;2022-07-23T08:38:12;5.00;;;2.90;;
5121;SDS011;2563;52.242;7.956;2022-07-23T08:40:40;5.13;;;2.40;;
5121;SDS011;2563;52.242;7.956;2022-07-23T08:43:07;5.33;;;2.20;;
5121;SDS011;2563;52.242;7.956;2022-07-23T08:45:39;6.17;;;2.50;;
5121;SDS011;2563;52.242;7.956;2022-07-23T08:48:39;4.13;;;2.30;;
5121;SDS011;2563;52.242;7.956;2022-07-23T08:51:00;5.80;;;2.27;;
5121;SDS011;2563;52.242;7.956;2022-07-23T08:53:28;4.60;;;2.50;;
5121;SDS011;2563;52.242;7.956;2022-07-23T08:55:55;5.87;;;2.70;;
5121;SDS011;2563;52.242;7.956;2022-07-23T08:58:23;4.67;;;2.70;;
5121;SDS011;2563;52.242;7.956;2022-07-23T09:00:49;5.03;;;2.80;;
5121;SDS011;2563;52.242;7.956;2022-07-23T09:03:26;4.70;;;3.20;;
5121;SDS011;2563;52.242;7.956;2022-07-23T09:05:53;5.87;;;3.27;;
5121;SDS011;2563;52.242;7.956;2022-07-23T09:08:22;5.97;;;3.33;;
5121;SDS011;2563;52.242;7.956;2022-07-23T09:10:59;8.57;;;3.33;;
5121;SDS011;2563;52.242;7.956;2022-07-23T09:13:32;5.50;;;3.20;;
5121;SDS011;2563;52.242;7.956;2022-07-23T09:18:40;7.57;;;3.30;;
5121;SDS011;2563;52.242;7.956;2022-07-23T09:21:13;3.60;;;2.40;;
5121;SDS011;2563;52.242;7.956;2022-07-23T09:26:18;4.10;;;2.33;;
5121;SDS011;2563;52.242;7.956;2022-07-23T09:31:41;3.23;;;2.00;;
5121;SDS011;2563;52.242;7.956;2022-07-23T09:34:29;3.10;;;1.77;;
5121;SDS011;2563;52.242;7.956;2022-07-23T09:36:56;4.10;;;2.00;;
5121;SDS011;2563;52.242;7.956;2022-07-23T09:39:29;4.90;;;1.90;;
5121;SDS011;2563;52.242;7.956;2022-07-23T09:41:56;4.63;;;2.30;;
5121;SDS011;2563;52.242;7.956;2022-07-23T09:44:23;2.37;;;1.40;;
5121;SDS011;2563;52.242;7.956;2022-07-23T09:46:49;4.93;;;2.00;;
5121;SDS011;2563;52.242;7.956;2022-07-23T09:51:44;4.63;;;2.17;;
5121;SDS011;2563;52.242;7.956;2022-07-23T09:54:21;6.63;;;2.17;;
5121;SDS011;2563;52.242;7.956;2022-07-23T09:56:52;5.33;;;2.37;;
5121;SDS011;2563;52.242;7.956;2022-07-23T09:59:22;4.43;;;2.50;;
5121;SDS011;2563;52.242;7.956;2022-07-23T10:01:50;5.33;;;2.27;;
5121;SDS011;2563;52.242;7.956;2022-07-23T10:04:18;3.93;;;2.43;;
5121;SDS011;2563;52.242;7.956;2022-07-23T10:06:43;2.53;;;1.70;;
5121;SDS011;2563;52.242;7.956;2022-07-23T10:09:11;3.90;;;2.40;;
5121;SDS011;2563;52.242;7.956;2022-07-23T10:11:37;3.27;;;2.20;;
5121;SDS011;2563;52.242;7.956;2022-07-23T10:14:03;5.17;;;2.33;;
5121;SDS011;2563;52.242;7.956;2022-07-23T10:16:30;3.03;;;2.00;;
5121;SDS011;2563;52.242;7.956;2022-07-23T10:18:56;3.10;;;2.03;;
5121;SDS011;2563;52.242;7.956;2022-07-23T10:21:27;2.93;;;1.93;;
5121;SDS011;2563;52.242;7.956;2022-07-23T10:24:21;5.37;;;2.40;;
5121;SDS011;2563;52.242;7.956;2022-07-23T10:37:57;3.60;;;1.87;;
5121;SDS011;2563;52.242;7.956;2022-07-23T10:40:30;3.17;;;1.43;;
5121;SDS011;2563;52.242;7.956;2022-07-23T10:42:58;4.27;;;1.30;;
5121;SDS011;2563;52.242;7.956;2022-07-23T10:45:34;2.67;;;1.70;;
5121;SDS011;2563;52.242;7.956;2022-07-23T10:48:21;3.03;;;1.90;;
5121;SDS011;2563;52.242;7.956;2022-07-23T10:51:24;3.33;;;2.13;;
5121;SDS011;2563;52.242;7.956;2022-07-23T10:56:14;2.37;;;1.50;;
5121;SDS011;2563;52.242;7.956;2022-07-23T10:58:46;3.20;;;2.27;;
5121;SDS011;2563;52.242;7.956;2022-07-23T11:03:59;3.03;;;1.40;;
5121;SDS011;2563;52.242;7.956;2022-07-23T11:06:47;5.10;;;1.80;;
5121;SDS011;2563;52.242;7.956;2022-07-23T11:17:25;1.97;;;1.50;;
5121;SDS011;2563;52.242;7.956;2022-07-23T11:22:35;3.07;;;1.70;;
5121;SDS011;2563;52.242;7.956;2022-07-23T11:25:04;2.47;;;1.40;;
5121;SDS011;2563;52.242;7.956;2022-07-23T11:27:37;2.47;;;1.00;;
5121;SDS011;2563;52.242;7.956;2022-07-23T11:30:03;3.63;;;2.00;;
5121;SDS011;2563;52.242;7.956;2022-07-23T11:32:33;1.60;;;1.10;;
5121;SDS011;2563;52.242;7.956;2022-07-23T11:35:02;2.17;;;1.70;;
5121;SDS011;2563;52.242;7.956;2022-07-23T11:37:29;2.00;;;1.13;;
5121;SDS011;2563;52.242;7.956;2022-07-23T11:39:59;3.57;;;1.30;;
5121;SDS011;2563;52.242;7.956;2022-07-23T11:42:24;5.10;;;1.97;;
5121;SDS011;2563;52.242;7.956;2022-07-23T11:44:50;1.83;;;1.40;;
5121;SDS011;2563;52.242;7.956;2022-07-23T11:47:21;2.57;;;1.10;;
5121;SDS011;2563;52.242;7.956;2022-07-23T11:49:56;2.10;;;1.27;;
5121;SDS011;2563;52.242;7.956;2022-07-23T11:52:22;10.20;;;1.80;;
5121;SDS011;2563;52.242;7.956;2022-07-23T11:57:17;2.50;;;1.50;;
5121;SDS011;2563;52.242;7.956;2022-07-23T11:59:43;2.53;;;1.50;;
5121;SDS011;2563;52.242;7.956;2022-07-23T12:02:10;3.60;;;2.10;;
5121;SDS011;2563;52.242;7.956;2022-07-23T12:04:39;1.90;;;1.50;;
5121;SDS011;2563;52.242;7.956;2022-07-23T12:09:57;2.50;;;1.33;;
5121;SDS011;2563;52.242;7.956;2022-07-23T12:12:23;3.60;;;1.77;;
5121;SDS011;2563;52.242;7.956;2022-07-23T12:14:54;3.10;;;1.47;;
5121;SDS011;2563;52.242;7.956;2022-07-23T12:17:21;3.87;;;1.63;;
5121;SDS011;2563;52.242;7.956;2022-07-23T12:19:52;3.20;;;1.40;;
5121;SDS011;2563;52.242;7.956;2022-07-23T12:22:19;3.00;;;1.20;;
5121;SDS011;2563;52.242;7.956;2022-07-23T12:27:20;2.27;;;1.40;;
5121;SDS011;2563;52.242;7.956;2022-07-23T12:29:46;2.90;;;1.10;;
5121;SDS011;2563;52.242;7.956;2022-07-23T12:34:42;2.03;;;1.40;;
5121;SDS011;2563;52.242;7.956;2022-07-23T12:37:08;2.13;;;1.33;;
5121;SDS011;2563;52.242;7.956;2022-07-23T12:39:50;2.97;;;1.60;;
5121;SDS011;2563;52.242;7.956;2022-07-23T12:42:16;2.70;;;1.60;;
5121;SDS011;2563;52.242;7.956;2022-07-23T12:44:41;3.40;;;2.00;;
5121;SDS011;2563;52.242;7.956;2022-07-23T12:50:31;3.80;;;2.03;;
5121;SDS011;2563;52.242;7.956;2022-07-23T12:53:07;2.10;;;1.33;;
5121;SDS011;2563;52.242;7.956;2022-07-23T12:55:34;4.87;;;1.47;;
5121;SDS011;2563;52.242;7.956;2022-07-23T12:58:08;2.50;;;1.53;;
5121;SDS011;2563;52.242;7.956;2022-07-23T13:00:52;6.33;;;1.40;;
5121;SDS011;2563;52.242;7.956;2022-07-23T13:03:54;5.23;;;1.40;;
5121;SDS011;2563;52.242;7.956;2022-07-23T13:06:19;2.43;;;1.40;;
5121;SDS011;2563;52.242;7.956;2022-07-23T13:08:44;3.00;;;1.60;;
5121;SDS011;2563;52.242;7.956;2022-07-23T13:11:09;3.80;;;1.60;;
5121;SDS011;2563;52.242;7.956;2022-07-23T13:13:35;3.53;;;1.20;;
5121;SDS011;2563;52.242;7.956;2022-07-23T13:16:00;2.20;;;1.60;;
5121;SDS011;2563;52.242;7.956;2022-07-23T13:18:27;2.40;;;1.50;;
5121;SDS011;2563;52.242;7.956;2022-07-23T13:20:53;1.90;;;1.50;;
5121;SDS011;2563;52.242;7.956;2022-07-23T13:23:19;2.73;;;1.63;;
5121;SDS011;2563;52.242;7.956;2022-07-23T13:25:46;2.30;;;1.40;;
5121;SDS011;2563;52.242;7.956;2022-07-23T13:28:12;2.33;;;1.53;;
5121;SDS011;2563;52.242;7.956;2022-07-23T13:30:39;1.60;;;1.30;;
5121;SDS011;2563;52.242;7.956;2022-07-23T13:33:05;3.60;;;1.43;;
5121;SDS011;2563;52.242;7.956;2022-07-23T13:35:32;2.40;;;1.30;;
5121;SDS011;2563;52.242;7.956;2022-07-23T13:37:59;4.00;;;1.70;;
5121;SDS011;2563;52.242;7.956;2022-07-23T13:40:24;2.53;;;1.60;;
5121;SDS011;2563;52.242;7.956;2022-07-23T13:42:50;2.77;;;1.70;;
5121;SDS011;2563;52.242;7.956;2022-07-23T13:45:15;2.70;;;1.40;;
5121;SDS011;2563;52.242;7.956;2022-07-23T13:47:41;5.23;;;1.67;;
5121;SDS011;2563;52.242;7.956;2022-07-23T13:50:07;2.00;;;1.50;;
5121;SDS011;2563;52.242;7.956;2022-07-23T13:52:33;5.47;;;1.60;;
5121;SDS011;2563;52.242;7.956;2022-07-23T13:54:59;2.13;;;1.30;;
5121;SDS011;2563;52.242;7.956;2022-07-23T13:57:26;4.17;;;1.50;;
5121;SDS011;2563;52.242;7.956;2022-07-23T13:59:52;2.47;;;1.60;;
5121;SDS011;2563;52.242;7.956;2022-07-23T14:02:17;3.50;;;1.70;;
5121;SDS011;2563;52.242;7.956;2022-07-23T14:04:42;8.43;;;2.13;;
5121;SDS011;2563;52.242;7.956;2022-07-23T14:07:09;2.60;;;1.50;;
5121;SDS011;2563;52.242;7.956;2022-07-23T14:09:34;2.33;;;1.43;;
5121;SDS011;2563;52.242;7.956;2022-07-23T14:12:00;3.90;;;1.63;;
5121;SDS011;2563;52.242;7.956;2022-07-23T14:14:25;4.50;;;2.20;;
5121;SDS011;2563;52.242;7.956;2022-07-23T14:16:51;4.20;;;1.93;;
5121;SDS011;2563;52.242;7.956;2022-07-23T14:19:16;2.80;;;1.53;;
5121;SDS011;2563;52.242;7.956;2022-07-23T14:21:41;1.80;;;1.50;;
5121;SDS011;2563;52.242;7.956;2022-07-23T14:24:07;1.73;;;1.30;;
5121;SDS011;2563;52.242;7.956;2022-07-23T14:26:33;4.80;;;1.57;;
5121;SDS011;2563;52.242;7.956;2022-07-23T14:28:58;2.10;;;1.90;;
5121;SDS011;2563;52.242;7.956;2022-07-23T14:31:23;3.40;;;1.57;;
5121;SDS011;2563;52.242;7.956;2022-07-23T14:33:49;4.03;;;1.77;;
5121;SDS011;2563;52.242;7.956;2022-07-23T14:36:14;3.53;;;1.97;;
5121;SDS011;2563;52.242;7.956;2022-07-23T14:38:41;5.90;;;1.60;;
5121;SDS011;2563;52.242;7.956;2022-07-23T14:41:07;2.13;;;1.93;;
5121;SDS011;2563;52.242;7.956;2022-07-23T14:43:33;2.10;;;1.77;;
5121;SDS011;2563;52.242;7.956;2022-07-23T14:45:58;2.17;;;1.70;;
5121;SDS011;2563;52.242;7.956;2022-07-23T14:48:24;3.43;;;2.00;;
5121;SDS011;2563;52.242;7.956;2022-07-23T14:50:50;1.93;;;1.70;;
5121;SDS011;2563;52.242;7.956;2022-07-23T14:53:15;3.40;;;1.77;;
5121;SDS011;2563;52.242;7.956;2022-07-23T14:55:41;2.23;;;1.67;;
5121;SDS011;2563;52.242;7.956;2022-07-23T14:58:06;2.90;;;1.57;;
5121;SDS011;2563;52.242;7.956;2022-07-23T15:00:31;3.00;;;1.83;;
5121;SDS011;2563;52.242;7.956;2022-07-23T15:02:57;4.00;;;1.63;;
5121;SDS011;2563;52.242;7.956;2022-07-23T15:05:22;1.80;;;1.40;;
5121;SDS011;2563;52.242;7.956;2022-07-23T15:07:48;4.93;;;1.80;;
5121;SDS011;2563;52.242;7.956;2022-07-23T15:10:13;2.23;;;1.40;;
5121;SDS011;2563;52.242;7.956;2022-07-23T15:12:39;1.80;;;1.43;;
5121;SDS011;2563;52.242;7.956;2022-07-23T15:15:04;5.10;;;1.67;;
5121;SDS011;2563;52.242;7.956;2022-07-23T15:17:30;3.60;;;1.53;;
5121;SDS011;2563;52.242;7.956;2022-07-23T15:19:57;3.80;;;1.70;;
5121;SDS011;2563;52.242;7.956;2022-07-23T15:22:22;1.97;;;1.57;;
5121;SDS011;2563;52.242;7.956;2022-07-23T15:24:48;1.60;;;1.37;;
5121;SDS011;2563;52.242;7.956;2022-07-23T15:27:13;3.03;;;1.53;;
5121;SDS011;2563;52.242;7.956;2022-07-23T15:29:38;3.33;;;1.40;;
5121;SDS011;2563;52.242;7.956;2022-07-23T15:32:04;4.20;;;1.90;;
5121;SDS011;2563;52.242;7.956;2022-07-23T15:34:30;2.67;;;1.80;;
5121;SDS011;2563;52.242;7.956;2022-07-23T15:36:56;1.80;;;1.40;;
5121;SDS011;2563;52.242;7.956;2022-07-23T15:39:24;7.00;;;1.53;;
5121;SDS011;2563;52.242;7.956;2022-07-23T15:41:49;5.80;;;2.00;;
5121;SDS011;2563;52.242;7.956;2022-07-23T15:44:14;3.00;;;1.53;;
5121;SDS011;2563;52.242;7.956;2022-07-23T15:46:40;5.33;;;2.07;;
5121;SDS011;2563;52.242;7.956;2022-07-23T15:49:05;3.03;;;1.90;;
5121;SDS011;2563;52.242;7.956;2022-07-23T15:51:30;2.47;;;1.80;;
5121;SDS011;2563;52.242;7.956;2022-07-23T15:53:56;3.00;;;1.40;;
5121;SDS011;2563;52.242;7.956;2022-07-23T15:56:21;1.80;;;1.33;;
5121;SDS011;2563;52.242;7.956;2022-07-23T15:58:47;3.97;;;2.00;;